sensor_id;sensor_type;location;lat;lon;timestamp;P1;durP1;ratioP1;P2;durP2;ratioP2
14326;SDS011;7247;53.330;-1.180;2023-08-30T00:00:48;15.60;;;3.53;;
14326;SDS011;7247;53.330;-1.180;2023-08-30T00:03:15;11.30;;;3.43;;
14326;SDS011;7247;53.330;-1.180;2023-08-30T00:05:41;12.37;;;3.53;;
14326;SDS011;7247;53.330;-1.180;2023-08-30T00:08:08;10.40;;;3.60;;
14326;SDS011;7247;53.330;-1.180;2023-08-30T00:10:34;13.67;;;3.83;;
14326;SDS011;7247;53.330;-1.180;2023-08-30T00:13:04;15.70;;;3.47;;
14326;SDS011;7247;53.330;-1.180;2023-08-30T00:15:30;10.27;;;3.43;;
14326;SDS011;7247;53.330;-1.180;2023-08-30T00:17:57;14.03;;;4.33;;
14326;SDS011;7247;53.330;-1.180;2023-08-30T00:20:23;13.20;;;3.37;;
14326;SDS011;7247;53.330;-1.180;2023-08-30T00:22:50;13.10;;;4.17;;
14326;SDS011;7247;53.330;-1.180;2023-08-30T00:25:17;11.47;;;3.70;;
14326;SDS011;7247;53.330;-1.180;2023-08-30T00:27:44;9.23;;;3.40;;
14326;SDS011;7247;53.330;-1.180;2023-08-30T00:30:12;16.30;;;4.07;;
14326;SDS011;7247;53.330;-1.180;2023-08-30T00:32:38;14.57;;;3.57;;
14326;SDS011;7247;53.330;-1.180;2023-08-30T00:35:05;11.90;;;3.40;;
14326;SDS011;7247;53.330;-1.180;2023-08-30T00:37:32;13.77;;;3.50;;
14326;SDS011;7247;53.330;-1.180;2023-08-30T00:39:58;10.83;;;3.60;;
14326;SDS011;7247;53.330;-1.180;2023-08-30T00:42:25;9.77;;;3.43;;
14326;SDS011;7247;53.330;-1.180;2023-08-30T00:44:52;9.30;;;3.07;;
14326;SDS011;7247;53.330;-1.180;2023-08-30T00:47:20;12.70;;;3.77;;
14326;SDS011;7247;53.330;-1.180;2023-08-30T00:49:47;11.70;;;3.53;;
14326;SDS011;7247;53.330;-1.180;2023-08-30T00:52:13;13.33;;;3.57;;
14326;SDS011;7247;53.330;-1.180;2023-08-30T00:54:40;8.83;;;3.30;;
14326;SDS011;7247;53.330;-1.180;2023-08-30T00:57:06;8.83;;;3.30;;
14326;SDS011;7247;53.330;-1.180;2023-08-30T00:59:33;9.67;;;3.70;;
14326;SDS011;7247;53.330;-1.180;2023-08-30T01:02:00;11.73;;;4.10;;
14326;SDS011;7247;53.330;-1.180;2023-08-30T01:04:28;11.43;;;4.17;;
14326;SDS011;7247;53.330;-1.180;2023-08-30T01:06:55;10.57;;;4.07;;
14326;SDS011;7247;53.330;-1.180;2023-08-30T01:09:21;8.83;;;3.30;;
14326;SDS011;7247;53.330;-1.180;2023-08-30T01:11:48;9.13;;;3.27;;
14326;SDS011;7247;53.330;-1.180;2023-08-30T01:14:18;9.20;;;3.37;;
14326;SDS011;7247;53.330;-1.180;2023-08-30T01:16:45;8.57;;;3.20;;
14326;SDS011;7247;53.330;-1.180;2023-08-30T01:19:15;6.23;;;2.73;;
14326;SDS011;7247;53.330;-1.180;2023-08-30T01:21:48;9.57;;;3.10;;
14326;SDS011;7247;53.330;-1.180;2023-08-30T01:24:19;8.63;;;3.07;;
14326;SDS011;7247;53.330;-1.180;2023-08-30T01:26:57;8.07;;;2.70;;
14326;SDS011;7247;53.330;-1.180;2023-08-30T01:29:23;6.10;;;2.53;;
14326;SDS011;7247;53.330;-1.180;2023-08-30T01:31:50;6.03;;;2.80;;
14326;SDS011;7247;53.330;-1.180;2023-08-30T01:34:17;6.83;;;2.70;;
14326;SDS011;7247;53.330;-1.180;2023-08-30T01:36:43;8.70;;;2.90;;
14326;SDS011;7247;53.330;-1.180;2023-08-30T01:39:10;7.47;;;2.77;;
14326;SDS011;7247;53.330;-1.180;2023-08-30T01:41:38;6.43;;;2.70;;
14326;SDS011;7247;53.330;-1.180;2023-08-30T01:44:06;9.20;;;3.20;;
14326;SDS011;7247;53.330;-1.180;2023-08-30T01:46:33;8.50;;;2.97;;
14326;SDS011;7247;53.330;-1.180;2023-08-30T01:49:00;9.93;;;3.17;;
14326;SDS011;7247;53.330;-1.180;2023-08-30T01:51:27;7.67;;;3.00;;
14326;SDS011;7247;53.330;-1.180;2023-08-30T01:53:54;8.73;;;3.37;;
14326;SDS011;7247;53.330;-1.180;2023-08-30T01:56:21;11.23;;;2.83;;
14326;SDS011;7247;53.330;-1.180;2023-08-30T01:58:48;8.27;;;3.20;;
14326;SDS011;7247;53.330;-1.180;2023-08-30T02:01:15;8.47;;;3.20;;
14326;SDS011;7247;53.330;-1.180;2023-08-30T02:03:43;9.83;;;2.90;;
14326;SDS011;7247;53.330;-1.180;2023-08-30T02:06:11;9.50;;;3.77;;
14326;SDS011;7247;53.330;-1.180;2023-08-30T02:08:40;8.93;;;2.90;;
14326;SDS011;7247;53.330;-1.180;2023-08-30T02:11:09;12.03;;;3.27;;
14326;SDS011;7247;53.330;-1.180;2023-08-30T02:13:37;7.63;;;3.47;;
14326;SDS011;7247;53.330;-1.180;2023-08-30T02:16:04;13.40;;;2.93;;
14326;SDS011;7247;53.330;-1.180;2023-08-30T02:18:32;9.63;;;3.10;;
14326;SDS011;7247;53.330;-1.180;2023-08-30T02:20:59;8.37;;;2.73;;
14326;SDS011;7247;53.330;-1.180;2023-08-30T02:23:26;10.40;;;3.13;;
14326;SDS011;7247;53.330;-1.180;2023-08-30T02:25:53;11.70;;;2.80;;
14326;SDS011;7247;53.330;-1.180;2023-08-30T02:28:20;7.37;;;2.50;;
14326;SDS011;7247;53.330;-1.180;2023-08-30T02:30:46;7.63;;;2.67;;
14326;SDS011;7247;53.330;-1.180;2023-08-30T02:33:12;6.83;;;2.40;;
14326;SDS011;7247;53.330;-1.180;2023-08-30T02:35:40;5.50;;;2.20;;
14326;SDS011;7247;53.330;-1.180;2023-08-30T02:38:07;7.20;;;2.50;;
14326;SDS011;7247;53.330;-1.180;2023-08-30T02:40:33;7.87;;;2.40;;
14326;SDS011;7247;53.330;-1.180;2023-08-30T02:42:59;7.57;;;2.40;;
14326;SDS011;7247;53.330;-1.180;2023-08-30T02:45:26;5.63;;;2.10;;
14326;SDS011;7247;53.330;-1.180;2023-08-30T02:47:54;7.40;;;2.40;;
14326;SDS011;7247;53.330;-1.180;2023-08-30T02:50:21;7.73;;;2.30;;
14326;SDS011;7247;53.330;-1.180;2023-08-30T02:52:48;8.90;;;2.50;;
14326;SDS011;7247;53.330;-1.180;2023-08-30T02:55:15;8.87;;;2.30;;
14326;SDS011;7247;53.330;-1.180;2023-08-30T02:57:41;9.73;;;2.27;;
14326;SDS011;7247;53.330;-1.180;2023-08-30T03:00:08;5.83;;;2.20;;
14326;SDS011;7247;53.330;-1.180;2023-08-30T03:02:35;8.37;;;2.30;;
14326;SDS011;7247;53.330;-1.180;2023-08-30T03:05:01;6.00;;;2.20;;
14326;SDS011;7247;53.330;-1.180;2023-08-30T03:07:30;6.67;;;2.03;;
14326;SDS011;7247;53.330;-1.180;2023-08-30T03:09:58;7.10;;;2.10;;
14326;SDS011;7247;53.330;-1.180;2023-08-30T03:12:25;7.07;;;2.40;;
14326;SDS011;7247;53.330;-1.180;2023-08-30T03:14:51;7.43;;;2.00;;
14326;SDS011;7247;53.330;-1.180;2023-08-30T03:17:17;7.50;;;2.43;;
14326;SDS011;7247;53.330;-1.180;2023-08-30T03:19:44;8.07;;;2.90;;
14326;SDS011;7247;53.330;-1.180;2023-08-30T03:22:10;5.20;;;2.60;;
14326;SDS011;7247;53.330;-1.180;2023-08-30T03:24:36;7.50;;;2.70;;
14326;SDS011;7247;53.330;-1.180;2023-08-30T03:27:04;7.97;;;2.57;;
14326;SDS011;7247;53.330;-1.180;2023-08-30T03:29:31;8.10;;;2.63;;
14326;SDS011;7247;53.330;-1.180;2023-08-30T03:31:57;7.90;;;2.73;;
14326;SDS011;7247;53.330;-1.180;2023-08-30T03:34:23;4.80;;;2.50;;
14326;SDS011;7247;53.330;-1.180;2023-08-30T03:36:50;7.23;;;2.37;;
14326;SDS011;7247;53.330;-1.180;2023-08-30T03:39:19;8.50;;;2.90;;
14326;SDS011;7247;53.330;-1.180;2023-08-30T03:41:45;5.63;;;2.50;;
14326;SDS011;7247;53.330;-1.180;2023-08-30T03:44:13;7.70;;;2.40;;
14326;SDS011;7247;53.330;-1.180;2023-08-30T03:46:40;8.73;;;2.60;;
14326;SDS011;7247;53.330;-1.180;2023-08-30T03:49:06;8.43;;;2.70;;
14326;SDS011;7247;53.330;-1.180;2023-08-30T03:51:32;5.23;;;2.57;;
14326;SDS011;7247;53.330;-1.180;2023-08-30T03:53:59;4.90;;;2.40;;
14326;SDS011;7247;53.330;-1.180;2023-08-30T03:56:26;7.40;;;2.60;;
14326;SDS011;7247;53.330;-1.180;2023-08-30T03:58:52;5.13;;;2.27;;
14326;SDS011;7247;53.330;-1.180;2023-08-30T04:01:20;10.57;;;2.60;;
14326;SDS011;7247;53.330;-1.180;2023-08-30T04:03:46;5.07;;;2.47;;
14326;SDS011;7247;53.330;-1.180;2023-08-30T04:06:13;6.73;;;2.50;;
14326;SDS011;7247;53.330;-1.180;2023-08-30T04:08:39;8.43;;;2.60;;
14326;SDS011;7247;53.330;-1.180;2023-08-30T04:11:05;9.20;;;2.83;;
14326;SDS011;7247;53.330;-1.180;2023-08-30T04:13:32;6.97;;;2.40;;
14326;SDS011;7247;53.330;-1.180;2023-08-30T04:16:00;7.10;;;2.93;;
14326;SDS011;7247;53.330;-1.180;2023-08-30T04:18:28;7.53;;;2.00;;
14326;SDS011;7247;53.330;-1.180;2023-08-30T04:20:54;6.60;;;2.40;;
14326;SDS011;7247;53.330;-1.180;2023-08-30T04:23:20;6.83;;;2.43;;
14326;SDS011;7247;53.330;-1.180;2023-08-30T04:25:47;8.80;;;2.70;;
14326;SDS011;7247;53.330;-1.180;2023-08-30T04:28:13;8.37;;;2.47;;
14326;SDS011;7247;53.330;-1.180;2023-08-30T04:30:40;11.67;;;2.70;;
14326;SDS011;7247;53.330;-1.180;2023-08-30T04:33:06;7.63;;;2.40;;
14326;SDS011;7247;53.330;-1.180;2023-08-30T04:35:34;8.70;;;2.87;;
14326;SDS011;7247;53.330;-1.180;2023-08-30T04:38:00;5.07;;;2.67;;
14326;SDS011;7247;53.330;-1.180;2023-08-30T04:40:28;5.93;;;2.77;;
14326;SDS011;7247;53.330;-1.180;2023-08-30T04:42:55;8.63;;;2.60;;
14326;SDS011;7247;53.330;-1.180;2023-08-30T04:45:21;5.57;;;2.30;;
14326;SDS011;7247;53.330;-1.180;2023-08-30T04:47:48;7.63;;;2.03;;
14326;SDS011;7247;53.330;-1.180;2023-08-30T04:50:15;6.33;;;2.40;;
14326;SDS011;7247;53.330;-1.180;2023-08-30T04:52:43;6.30;;;2.10;;
14326;SDS011;7247;53.330;-1.180;2023-08-30T04:55:09;7.20;;;2.30;;
14326;SDS011;7247;53.330;-1.180;2023-08-30T04:57:36;6.57;;;2.07;;
14326;SDS011;7247;53.330;-1.180;2023-08-30T05:00:03;7.23;;;2.53;;
14326;SDS011;7247;53.330;-1.180;2023-08-30T05:02:30;8.87;;;2.07;;
14326;SDS011;7247;53.330;-1.180;2023-08-30T05:04:57;7.43;;;2.30;;
14326;SDS011;7247;53.330;-1.180;2023-08-30T05:07:23;8.63;;;2.60;;
14326;SDS011;7247;53.330;-1.180;2023-08-30T05:09:51;6.33;;;2.20;;
14326;SDS011;7247;53.330;-1.180;2023-08-30T05:12:17;7.73;;;2.17;;
14326;SDS011;7247;53.330;-1.180;2023-08-30T05:14:44;5.70;;;2.33;;
14326;SDS011;7247;53.330;-1.180;2023-08-30T05:17:10;7.60;;;2.10;;
14326;SDS011;7247;53.330;-1.180;2023-08-30T05:19:36;7.87;;;2.50;;
14326;SDS011;7247;53.330;-1.180;2023-08-30T05:22:03;7.77;;;2.10;;
14326;SDS011;7247;53.330;-1.180;2023-08-30T05:24:29;6.53;;;1.83;;
14326;SDS011;7247;53.330;-1.180;2023-08-30T05:26:57;7.40;;;2.13;;
14326;SDS011;7247;53.330;-1.180;2023-08-30T05:29:24;6.33;;;1.83;;
14326;SDS011;7247;53.330;-1.180;2023-08-30T05:31:50;7.53;;;2.30;;
14326;SDS011;7247;53.330;-1.180;2023-08-30T05:34:16;7.57;;;2.00;;
14326;SDS011;7247;53.330;-1.180;2023-08-30T05:36:43;5.90;;;1.93;;
14326;SDS011;7247;53.330;-1.180;2023-08-30T05:39:09;8.10;;;2.23;;
14326;SDS011;7247;53.330;-1.180;2023-08-30T05:41:36;5.53;;;2.10;;
14326;SDS011;7247;53.330;-1.180;2023-08-30T05:44:04;5.67;;;2.00;;
14326;SDS011;7247;53.330;-1.180;2023-08-30T05:46:31;6.07;;;2.17;;
14326;SDS011;7247;53.330;-1.180;2023-08-30T05:48:57;5.43;;;2.10;;
14326;SDS011;7247;53.330;-1.180;2023-08-30T05:51:25;7.63;;;1.80;;
14326;SDS011;7247;53.330;-1.180;2023-08-30T05:53:52;6.23;;;2.23;;
14326;SDS011;7247;53.330;-1.180;2023-08-30T05:56:18;6.70;;;2.40;;
14326;SDS011;7247;53.330;-1.180;2023-08-30T05:58:45;6.80;;;2.00;;
14326;SDS011;7247;53.330;-1.180;2023-08-30T06:01:13;8.30;;;2.20;;
14326;SDS011;7247;53.330;-1.180;2023-08-30T06:03:40;8.20;;;2.03;;
14326;SDS011;7247;53.330;-1.180;2023-08-30T06:06:06;5.47;;;2.20;;
14326;SDS011;7247;53.330;-1.180;2023-08-30T06:08:32;7.00;;;1.97;;
14326;SDS011;7247;53.330;-1.180;2023-08-30T06:10:59;8.50;;;2.33;;
14326;SDS011;7247;53.330;-1.180;2023-08-30T06:13:25;7.33;;;2.23;;
14326;SDS011;7247;53.330;-1.180;2023-08-30T06:15:52;8.37;;;2.50;;
14326;SDS011;7247;53.330;-1.180;2023-08-30T06:18:20;7.90;;;2.50;;
14326;SDS011;7247;53.330;-1.180;2023-08-30T06:20:46;11.37;;;2.50;;
14326;SDS011;7247;53.330;-1.180;2023-08-30T06:23:13;8.13;;;2.27;;
14326;SDS011;7247;53.330;-1.180;2023-08-30T06:25:39;7.93;;;2.03;;
14326;SDS011;7247;53.330;-1.180;2023-08-30T06:28:06;6.53;;;2.30;;
14326;SDS011;7247;53.330;-1.180;2023-08-30T06:30:32;8.20;;;2.73;;
14326;SDS011;7247;53.330;-1.180;2023-08-30T06:32:58;4.43;;;2.07;;
14326;SDS011;7247;53.330;-1.180;2023-08-30T06:35:26;6.03;;;2.10;;
14326;SDS011;7247;53.330;-1.180;2023-08-30T06:37:53;6.27;;;2.30;;
14326;SDS011;7247;53.330;-1.180;2023-08-30T06:40:20;7.07;;;1.97;;
14326;SDS011;7247;53.330;-1.180;2023-08-30T06:42:47;5.40;;;2.20;;
14326;SDS011;7247;53.330;-1.180;2023-08-30T06:45:13;7.10;;;1.90;;
14326;SDS011;7247;53.330;-1.180;2023-08-30T06:47:41;6.80;;;1.83;;
14326;SDS011;7247;53.330;-1.180;2023-08-30T06:50:08;7.50;;;1.93;;
14326;SDS011;7247;53.330;-1.180;2023-08-30T06:52:36;4.40;;;1.77;;
14326;SDS011;7247;53.330;-1.180;2023-08-30T06:55:03;4.80;;;1.97;;
14326;SDS011;7247;53.330;-1.180;2023-08-30T06:57:29;4.63;;;1.63;;
14326;SDS011;7247;53.330;-1.180;2023-08-30T06:59:56;4.37;;;1.90;;
14326;SDS011;7247;53.330;-1.180;2023-08-30T07:02:24;3.47;;;1.63;;
14326;SDS011;7247;53.330;-1.180;2023-08-30T07:04:52;4.40;;;1.90;;
14326;SDS011;7247;53.330;-1.180;2023-08-30T07:07:19;5.60;;;1.80;;
14326;SDS011;7247;53.330;-1.180;2023-08-30T07:09:47;8.50;;;1.73;;
14326;SDS011;7247;53.330;-1.180;2023-08-30T07:12:13;5.47;;;1.63;;
14326;SDS011;7247;53.330;-1.180;2023-08-30T07:14:39;4.37;;;1.70;;
14326;SDS011;7247;53.330;-1.180;2023-08-30T07:17:06;4.93;;;1.60;;
14326;SDS011;7247;53.330;-1.180;2023-08-30T07:19:33;4.83;;;1.60;;
14326;SDS011;7247;53.330;-1.180;2023-08-30T07:21:59;3.40;;;1.27;;
14326;SDS011;7247;53.330;-1.180;2023-08-30T07:24:26;5.23;;;1.60;;
14326;SDS011;7247;53.330;-1.180;2023-08-30T07:26:54;4.50;;;1.20;;
14326;SDS011;7247;53.330;-1.180;2023-08-30T07:29:20;3.03;;;1.40;;
14326;SDS011;7247;53.330;-1.180;2023-08-30T07:31:46;4.17;;;1.50;;
14326;SDS011;7247;53.330;-1.180;2023-08-30T07:34:13;5.57;;;1.50;;
14326;SDS011;7247;53.330;-1.180;2023-08-30T07:36:39;3.80;;;1.57;;
14326;SDS011;7247;53.330;-1.180;2023-08-30T07:39:06;3.50;;;1.60;;
14326;SDS011;7247;53.330;-1.180;2023-08-30T07:41:33;3.20;;;1.50;;
14326;SDS011;7247;53.330;-1.180;2023-08-30T07:44:01;3.63;;;1.40;;
14326;SDS011;7247;53.330;-1.180;2023-08-30T07:46:28;4.97;;;1.70;;
14326;SDS011;7247;53.330;-1.180;2023-08-30T07:48:55;3.60;;;1.60;;
14326;SDS011;7247;53.330;-1.180;2023-08-30T07:51:21;5.23;;;1.50;;
14326;SDS011;7247;53.330;-1.180;2023-08-30T07:53:48;3.97;;;1.50;;
14326;SDS011;7247;53.330;-1.180;2023-08-30T07:56:14;3.57;;;1.40;;
14326;SDS011;7247;53.330;-1.180;2023-08-30T07:58:40;4.17;;;1.40;;
14326;SDS011;7247;53.330;-1.180;2023-08-30T08:01:08;3.33;;;1.13;;
14326;SDS011;7247;53.330;-1.180;2023-08-30T08:03:35;3.27;;;1.30;;
14326;SDS011;7247;53.330;-1.180;2023-08-30T08:06:01;4.27;;;1.37;;
14326;SDS011;7247;53.330;-1.180;2023-08-30T08:08:28;5.33;;;1.20;;
14326;SDS011;7247;53.330;-1.180;2023-08-30T08:10:55;2.13;;;1.10;;
14326;SDS011;7247;53.330;-1.180;2023-08-30T08:13:21;2.23;;;1.03;;
14326;SDS011;7247;53.330;-1.180;2023-08-30T08:15:47;3.73;;;1.43;;
14326;SDS011;7247;53.330;-1.180;2023-08-30T08:18:15;4.73;;;1.10;;
14326;SDS011;7247;53.330;-1.180;2023-08-30T08:20:42;4.10;;;1.20;;
14326;SDS011;7247;53.330;-1.180;2023-08-30T08:23:08;2.80;;;1.40;;
14326;SDS011;7247;53.330;-1.180;2023-08-30T08:25:35;2.50;;;1.10;;
14326;SDS011;7247;53.330;-1.180;2023-08-30T08:28:01;3.97;;;1.47;;
14326;SDS011;7247;53.330;-1.180;2023-08-30T08:30:28;4.27;;;1.30;;
14326;SDS011;7247;53.330;-1.180;2023-08-30T08:32:55;3.60;;;1.27;;
14326;SDS011;7247;53.330;-1.180;2023-08-30T08:35:23;2.97;;;1.10;;
14326;SDS011;7247;53.330;-1.180;2023-08-30T08:37:49;2.40;;;1.20;;
14326;SDS011;7247;53.330;-1.180;2023-08-30T08:40:16;1.90;;;1.20;;
14326;SDS011;7247;53.330;-1.180;2023-08-30T08:42:42;2.60;;;1.20;;
14326;SDS011;7247;53.330;-1.180;2023-08-30T08:45:09;2.17;;;1.10;;
14326;SDS011;7247;53.330;-1.180;2023-08-30T08:47:37;3.13;;;1.20;;
14326;SDS011;7247;53.330;-1.180;2023-08-30T08:50:03;1.60;;;1.37;;
14326;SDS011;7247;53.330;-1.180;2023-08-30T08:52:31;2.27;;;1.20;;
14326;SDS011;7247;53.330;-1.180;2023-08-30T08:54:58;4.13;;;1.20;;
14326;SDS011;7247;53.330;-1.180;2023-08-30T08:57:26;4.03;;;1.33;;
14326;SDS011;7247;53.330;-1.180;2023-08-30T08:59:54;3.27;;;1.17;;
14326;SDS011;7247;53.330;-1.180;2023-08-30T09:02:21;2.67;;;1.20;;
14326;SDS011;7247;53.330;-1.180;2023-08-30T09:04:47;1.60;;;1.10;;
14326;SDS011;7247;53.330;-1.180;2023-08-30T09:07:14;1.93;;;1.10;;
14326;SDS011;7247;53.330;-1.180;2023-08-30T09:09:42;2.53;;;1.00;;
14326;SDS011;7247;53.330;-1.180;2023-08-30T09:12:08;0.57;;;0.57;;
14326;SDS011;7247;53.330;-1.180;2023-08-30T09:14:35;1.03;;;0.97;;
14326;SDS011;7247;53.330;-1.180;2023-08-30T09:17:02;1.27;;;0.80;;
14326;SDS011;7247;53.330;-1.180;2023-08-30T09:19:29;1.57;;;0.87;;
14326;SDS011;7247;53.330;-1.180;2023-08-30T09:21:56;1.33;;;0.83;;
14326;SDS011;7247;53.330;-1.180;2023-08-30T09:24:22;2.27;;;0.87;;
14326;SDS011;7247;53.330;-1.180;2023-08-30T09:26:51;1.70;;;1.00;;
14326;SDS011;7247;53.330;-1.180;2023-08-30T09:29:18;1.70;;;0.90;;
14326;SDS011;7247;53.330;-1.180;2023-08-30T09:31:45;1.80;;;1.00;;
14326;SDS011;7247;53.330;-1.180;2023-08-30T09:34:11;1.30;;;0.87;;
14326;SDS011;7247;53.330;-1.180;2023-08-30T09:36:38;5.73;;;1.30;;
14326;SDS011;7247;53.330;-1.180;2023-08-30T09:39:05;2.13;;;1.10;;
14326;SDS011;7247;53.330;-1.180;2023-08-30T09:41:32;2.97;;;0.90;;
14326;SDS011;7247;53.330;-1.180;2023-08-30T09:44:05;0.80;;;0.80;;
14326;SDS011;7247;53.330;-1.180;2023-08-30T09:46:32;1.80;;;0.80;;
14326;SDS011;7247;53.330;-1.180;2023-08-30T09:48:58;2.00;;;1.07;;
14326;SDS011;7247;53.330;-1.180;2023-08-30T09:51:25;1.40;;;1.03;;
14326;SDS011;7247;53.330;-1.180;2023-08-30T09:53:53;1.50;;;1.10;;
14326;SDS011;7247;53.330;-1.180;2023-08-30T09:56:24;1.23;;;1.00;;
14326;SDS011;7247;53.330;-1.180;2023-08-30T09:58:51;2.30;;;1.10;;
14326;SDS011;7247;53.330;-1.180;2023-08-30T10:01:20;1.93;;;1.03;;
14326;SDS011;7247;53.330;-1.180;2023-08-30T10:03:46;1.30;;;0.90;;
14326;SDS011;7247;53.330;-1.180;2023-08-30T10:06:13;1.17;;;1.00;;
14326;SDS011;7247;53.330;-1.180;2023-08-30T10:08:40;1.57;;;1.03;;
14326;SDS011;7247;53.330;-1.180;2023-08-30T10:11:07;2.80;;;0.97;;
14326;SDS011;7247;53.330;-1.180;2023-08-30T10:13:34;1.13;;;0.70;;
14326;SDS011;7247;53.330;-1.180;2023-08-30T10:16:01;3.37;;;1.07;;
14326;SDS011;7247;53.330;-1.180;2023-08-30T10:18:31;1.33;;;0.97;;
14326;SDS011;7247;53.330;-1.180;2023-08-30T10:20:59;2.67;;;1.20;;
14326;SDS011;7247;53.330;-1.180;2023-08-30T10:23:26;2.17;;;1.30;;
14326;SDS011;7247;53.330;-1.180;2023-08-30T10:25:54;2.73;;;1.40;;
14326;SDS011;7247;53.330;-1.180;2023-08-30T10:28:21;2.40;;;1.27;;
14326;SDS011;7247;53.330;-1.180;2023-08-30T10:30:48;2.00;;;1.23;;
14326;SDS011;7247;53.330;-1.180;2023-08-30T10:33:14;2.50;;;1.20;;
14326;SDS011;7247;53.330;-1.180;2023-08-30T10:35:49;4.10;;;1.20;;
14326;SDS011;7247;53.330;-1.180;2023-08-30T10:38:24;3.37;;;1.23;;
14326;SDS011;7247;53.330;-1.180;2023-08-30T10:40:51;2.47;;;1.20;;
14326;SDS011;7247;53.330;-1.180;2023-08-30T10:43:27;2.27;;;1.10;;
14326;SDS011;7247;53.330;-1.180;2023-08-30T10:45:58;2.20;;;1.20;;
14326;SDS011;7247;53.330;-1.180;2023-08-30T10:48:33;2.37;;;1.30;;
14326;SDS011;7247;53.330;-1.180;2023-08-30T10:51:01;3.27;;;1.10;;
14326;SDS011;7247;53.330;-1.180;2023-08-30T10:53:29;3.17;;;1.20;;
14326;SDS011;7247;53.330;-1.180;2023-08-30T10:56:11;2.50;;;1.07;;
14326;SDS011;7247;53.330;-1.180;2023-08-30T10:58:40;2.00;;;1.20;;
14326;SDS011;7247;53.330;-1.180;2023-08-30T11:01:07;2.60;;;1.10;;
14326;SDS011;7247;53.330;-1.180;2023-08-30T11:03:35;1.57;;;1.03;;
14326;SDS011;7247;53.330;-1.180;2023-08-30T11:06:03;3.10;;;1.17;;
14326;SDS011;7247;53.330;-1.180;2023-08-30T11:08:29;1.50;;;1.13;;
14326;SDS011;7247;53.330;-1.180;2023-08-30T11:11:00;1.63;;;1.30;;
14326;SDS011;7247;53.330;-1.180;2023-08-30T11:13:27;2.80;;;1.70;;
14326;SDS011;7247;53.330;-1.180;2023-08-30T11:15:53;1.77;;;1.20;;
14326;SDS011;7247;53.330;-1.180;2023-08-30T11:18:20;3.03;;;1.40;;
14326;SDS011;7247;53.330;-1.180;2023-08-30T11:20:47;3.23;;;1.23;;
14326;SDS011;7247;53.330;-1.180;2023-08-30T11:23:15;2.50;;;1.20;;
14326;SDS011;7247;53.330;-1.180;2023-08-30T11:25:41;2.23;;;1.30;;
14326;SDS011;7247;53.330;-1.180;2023-08-30T11:28:08;2.73;;;1.40;;
14326;SDS011;7247;53.330;-1.180;2023-08-30T11:30:39;3.67;;;1.43;;
14326;SDS011;7247;53.330;-1.180;2023-08-30T11:33:05;2.70;;;1.57;;
14326;SDS011;7247;53.330;-1.180;2023-08-30T11:35:32;2.97;;;1.20;;
14326;SDS011;7247;53.330;-1.180;2023-08-30T11:37:59;3.07;;;1.30;;
14326;SDS011;7247;53.330;-1.180;2023-08-30T11:40:26;2.20;;;1.20;;
14326;SDS011;7247;53.330;-1.180;2023-08-30T11:42:53;3.90;;;1.40;;
14326;SDS011;7247;53.330;-1.180;2023-08-30T11:45:20;2.60;;;1.43;;
14326;SDS011;7247;53.330;-1.180;2023-08-30T11:47:46;2.60;;;1.27;;
14326;SDS011;7247;53.330;-1.180;2023-08-30T11:50:13;1.87;;;1.10;;
14326;SDS011;7247;53.330;-1.180;2023-08-30T11:52:40;2.77;;;1.20;;
14326;SDS011;7247;53.330;-1.180;2023-08-30T11:55:07;3.30;;;1.40;;
14326;SDS011;7247;53.330;-1.180;2023-08-30T11:57:34;3.17;;;1.20;;
14326;SDS011;7247;53.330;-1.180;2023-08-30T12:00:08;3.33;;;1.30;;
14326;SDS011;7247;53.330;-1.180;2023-08-30T12:02:35;3.87;;;1.40;;
14326;SDS011;7247;53.330;-1.180;2023-08-30T12:05:01;2.27;;;1.27;;
14326;SDS011;7247;53.330;-1.180;2023-08-30T12:07:29;3.87;;;1.57;;
14326;SDS011;7247;53.330;-1.180;2023-08-30T12:10:03;2.00;;;1.23;;
14326;SDS011;7247;53.330;-1.180;2023-08-30T12:12:29;2.23;;;1.13;;
14326;SDS011;7247;53.330;-1.180;2023-08-30T12:14:57;1.87;;;1.10;;
14326;SDS011;7247;53.330;-1.180;2023-08-30T12:17:24;4.40;;;1.40;;
14326;SDS011;7247;53.330;-1.180;2023-08-30T12:19:55;3.13;;;1.27;;
14326;SDS011;7247;53.330;-1.180;2023-08-30T12:22:21;1.87;;;1.10;;
14326;SDS011;7247;53.330;-1.180;2023-08-30T12:24:48;1.40;;;1.00;;
14326;SDS011;7247;53.330;-1.180;2023-08-30T12:27:14;1.90;;;1.20;;
14326;SDS011;7247;53.330;-1.180;2023-08-30T12:29:41;1.07;;;0.87;;
14326;SDS011;7247;53.330;-1.180;2023-08-30T12:32:08;2.93;;;0.80;;
14326;SDS011;7247;53.330;-1.180;2023-08-30T12:34:35;3.27;;;1.00;;
14326;SDS011;7247;53.330;-1.180;2023-08-30T12:37:02;2.13;;;1.00;;
14326;SDS011;7247;53.330;-1.180;2023-08-30T12:39:29;7.90;;;1.43;;
14326;SDS011;7247;53.330;-1.180;2023-08-30T12:41:55;2.93;;;1.00;;
14326;SDS011;7247;53.330;-1.180;2023-08-30T12:44:22;2.90;;;1.10;;
14326;SDS011;7247;53.330;-1.180;2023-08-30T12:46:48;1.80;;;1.00;;
14326;SDS011;7247;53.330;-1.180;2023-08-30T12:49:16;1.20;;;1.10;;
14326;SDS011;7247;53.330;-1.180;2023-08-30T12:51:42;3.27;;;1.30;;
14326;SDS011;7247;53.330;-1.180;2023-08-30T12:54:09;1.50;;;1.07;;
14326;SDS011;7247;53.330;-1.180;2023-08-30T12:56:35;1.10;;;0.97;;
14326;SDS011;7247;53.330;-1.180;2023-08-30T12:59:01;1.87;;;1.23;;
14326;SDS011;7247;53.330;-1.180;2023-08-30T13:01:28;1.30;;;1.00;;
14326;SDS011;7247;53.330;-1.180;2023-08-30T13:03:55;2.10;;;1.50;;
14326;SDS011;7247;53.330;-1.180;2023-08-30T13:06:22;2.03;;;1.17;;
14326;SDS011;7247;53.330;-1.180;2023-08-30T13:08:49;2.70;;;1.10;;
14326;SDS011;7247;53.330;-1.180;2023-08-30T13:11:15;1.67;;;1.07;;
14326;SDS011;7247;53.330;-1.180;2023-08-30T13:13:41;3.13;;;1.00;;
14326;SDS011;7247;53.330;-1.180;2023-08-30T13:16:08;1.77;;;1.00;;
14326;SDS011;7247;53.330;-1.180;2023-08-30T13:18:34;2.30;;;1.20;;
14326;SDS011;7247;53.330;-1.180;2023-08-30T13:21:01;0.80;;;0.80;;
14326;SDS011;7247;53.330;-1.180;2023-08-30T13:23:30;2.43;;;1.13;;
14326;SDS011;7247;53.330;-1.180;2023-08-30T13:25:57;1.73;;;1.00;;
14326;SDS011;7247;53.330;-1.180;2023-08-30T13:28:23;1.70;;;1.10;;
14326;SDS011;7247;53.330;-1.180;2023-08-30T13:30:50;2.00;;;0.90;;
14326;SDS011;7247;53.330;-1.180;2023-08-30T13:33:16;1.70;;;1.07;;
14326;SDS011;7247;53.330;-1.180;2023-08-30T13:35:42;1.10;;;1.00;;
14326;SDS011;7247;53.330;-1.180;2023-08-30T13:38:09;1.57;;;1.20;;
14326;SDS011;7247;53.330;-1.180;2023-08-30T13:40:37;2.13;;;1.20;;
14326;SDS011;7247;53.330;-1.180;2023-08-30T13:43:03;1.33;;;1.00;;
14326;SDS011;7247;53.330;-1.180;2023-08-30T13:45:29;1.93;;;1.10;;
14326;SDS011;7247;53.330;-1.180;2023-08-30T13:47:56;2.73;;;1.23;;
14326;SDS011;7247;53.330;-1.180;2023-08-30T13:50:22;1.47;;;1.20;;
14326;SDS011;7247;53.330;-1.180;2023-08-30T13:52:49;1.87;;;1.20;;
14326;SDS011;7247;53.330;-1.180;2023-08-30T13:55:15;1.60;;;1.20;;
14326;SDS011;7247;53.330;-1.180;2023-08-30T13:57:43;2.03;;;1.10;;
14326;SDS011;7247;53.330;-1.180;2023-08-30T14:00:10;2.17;;;1.00;;
14326;SDS011;7247;53.330;-1.180;2023-08-30T14:02:39;1.93;;;1.23;;
14326;SDS011;7247;53.330;-1.180;2023-08-30T14:05:06;1.43;;;1.03;;
14326;SDS011;7247;53.330;-1.180;2023-08-30T14:07:33;1.20;;;1.00;;
14326;SDS011;7247;53.330;-1.180;2023-08-30T14:09:59;1.10;;;1.00;;
14326;SDS011;7247;53.330;-1.180;2023-08-30T14:12:26;1.97;;;1.20;;
14326;SDS011;7247;53.330;-1.180;2023-08-30T14:14:53;2.07;;;1.30;;
14326;SDS011;7247;53.330;-1.180;2023-08-30T14:17:20;3.80;;;1.27;;
14326;SDS011;7247;53.330;-1.180;2023-08-30T14:19:46;4.03;;;1.70;;
14326;SDS011;7247;53.330;-1.180;2023-08-30T14:22:13;2.20;;;1.40;;
14326;SDS011;7247;53.330;-1.180;2023-08-30T14:24:39;2.90;;;1.23;;
14326;SDS011;7247;53.330;-1.180;2023-08-30T14:27:05;2.60;;;1.30;;
14326;SDS011;7247;53.330;-1.180;2023-08-30T14:29:32;2.40;;;1.30;;
14326;SDS011;7247;53.330;-1.180;2023-08-30T14:32:00;5.33;;;1.33;;
14326;SDS011;7247;53.330;-1.180;2023-08-30T14:34:26;2.43;;;1.20;;
14326;SDS011;7247;53.330;-1.180;2023-08-30T14:36:53;2.37;;;1.30;;
14326;SDS011;7247;53.330;-1.180;2023-08-30T14:39:19;1.50;;;1.30;;
14326;SDS011;7247;53.330;-1.180;2023-08-30T14:41:46;3.37;;;1.50;;
14326;SDS011;7247;53.330;-1.180;2023-08-30T14:44:12;3.80;;;1.10;;